Pagina principale
METAR-TAF:

METAR-TAF

Aeroporti :

Aeroporto di Roma-Urbe

Roma, Italia

latitudine: 41-57N, longitudine: 012-30E, altezza: 18 m

Osservazione

Il bollettino è stato emesso 3 ore e 7 minuti fa, alle 17:50 UTC
Vento 4 kt da sud-ovest
Temperature 26°C
Umidità 70%
Pressione 1013 hPa
Visibilità 10 km o più
Poco nuvoloso ad un'altezza di 2500 ft
Nuvoloso ad un'altezza di 4000 ft

METAR: LIRU 221750Z 22004KT 9999 FEW025 BKN040 26/20 Q1013

Ora: 22:57 (20:57 UTC)

Previsione

Il bollettino è stato emesso 6 ore e 57 minuti fa, alle 14:00 UTC
Previsione valida dal 22 alle 15 UTC al 22 alle 24 UTC
Vento 10 kt da sud/sud-ovest
Visibilità 10 km o più
Nubi sparse ad un'altezza di 3000 ft
Evoluzione graduale
dal 22 alle 18 UTC al 22 alle 20 UTC
Vento 5 kt da direzioni variabili

TAF: LIRU 221400Z 2215/2224 20010KT 9999 SCT030 BECMG 2218/2220 VRB05KT

Osservazioni e previsioni meteorologiche di più di 4000 aeroporti (messaggi METAR e TAF).

Le stazioni disponibili sono rappresentate dai dischi gialli e rossi sulla carta.

Puntare il mouse per vedere il nome della stazione.

Clicca sopra per visualizzare le osservazioni e previsioni meteorologiche.

Per cambiare la mappa : fare clic sui pulsanti verdi con una croce nera per ingrandire, il pulsante verde con un trattino per diminuire, o sulla freccia verde per le mappe adiacenti.


METAR-TAF: